Time;durP1;ratioP1;P1;durP2;ratioP2;P2;SDS_P1;SDS_P2;PMS_P1;PMS_P2;Temp;Humidity;BMP_temperature;BMP_pressure;BME280_temperature;BME280_humidity;BME280_pressure;Samples;Min_cycle;Max_cycle;Signal;HPM_P1;HPM_P2
2021/04/15 00:01:49;;;;;;;5.47;4.93;;;3.90;77.30;;;;;;5046325;28;20466;-46
2021/04/15 00:04:16;;;;;;;5.13;4.60;;;3.80;77.30;;;;;;5049056;28;20835;-46
2021/04/15 00:06:43;;;;;;;5.90;5.30;;;3.80;77.20;;;;;;5046696;28;20473;-46
2021/04/15 00:09:18;;;;;;;5.63;5.13;;;3.80;77.30;;;;;;5047505;28;20485;-46
2021/04/15 00:11:46;;;;;;;8.70;5.50;;;3.70;77.40;;;;;;5049086;28;20450;-47
2021/04/15 00:14:14;;;;;;;7.00;6.10;;;3.70;77.40;;;;;;5047654;28;20944;-46
2021/04/15 00:16:44;;;;;;;7.13;5.17;;;3.70;77.20;;;;;;5046613;28;20558;-47
2021/04/15 00:19:13;;;;;;;8.23;5.40;;;3.70;77.20;;;;;;5047529;28;20476;-46
2021/04/15 00:21:39;;;;;;;11.50;5.90;;;3.70;77.30;;;;;;5042745;28;20469;-46
2021/04/15 00:24:06;;;;;;;7.43;5.37;;;3.60;77.50;;;;;;5048268;28;20455;-46
2021/04/15 00:26:32;;;;;;;8.83;5.77;;;3.60;77.50;;;;;;5047904;28;20469;-47
2021/04/15 00:28:59;;;;;;;6.77;6.13;;;3.60;77.60;;;;;;5047218;28;20490;-47
2021/04/15 00:31:27;;;;;;;9.60;6.60;;;3.60;77.40;;;;;;5046463;28;20525;-46
2021/04/15 00:33:54;;;;;;;10.63;6.60;;;3.60;77.50;;;;;;5044231;28;20470;-46
2021/04/15 00:36:21;;;;;;;7.10;5.00;;;3.50;77.50;;;;;;5061621;28;20458;-46
2021/04/15 00:38:49;;;;;;;10.03;6.80;;;3.50;77.60;;;;;;5048563;28;20457;-46
2021/04/15 00:41:16;;;;;;;6.23;5.00;;;3.50;77.60;;;;;;5047075;28;20452;-46
2021/04/15 00:43:45;;;;;;;8.33;6.23;;;3.50;77.60;;;;;;5049548;28;20459;-47
2021/04/15 00:46:38;;;;;;;8.90;5.60;;;3.50;77.70;;;;;;5047314;28;20549;-47
2021/04/15 00:49:04;;;;;;;8.53;6.87;;;3.40;77.70;;;;;;5047160;28;20574;-46
2021/04/15 00:51:41;;;;;;;6.67;5.43;;;3.40;77.80;;;;;;5046537;28;21018;-46
2021/04/15 00:54:38;;;;;;;7.77;7.10;;;3.40;77.80;;;;;;5050173;28;20453;-46
2021/04/15 00:57:08;;;;;;;8.43;7.63;;;3.40;78.00;;;;;;5047993;28;20446;-46
2021/04/15 00:59:35;;;;;;;9.50;6.03;;;3.40;77.90;;;;;;5046974;28;20857;-46
2021/04/15 01:02:01;;;;;;;8.30;7.27;;;3.40;77.90;;;;;;5046716;28;20472;-46
2021/04/15 01:04:28;;;;;;;7.53;6.80;;;3.30;77.90;;;;;;5044619;28;20459;-46
2021/04/15 01:06:55;;;;;;;6.83;5.57;;;3.30;77.90;;;;;;5063679;28;20462;-46
2021/04/15 01:09:22;;;;;;;11.07;6.90;;;3.30;78.00;;;;;;5048460;28;20501;-46
2021/04/15 01:12:37;;;;;;;8.87;7.30;;;3.30;78.20;;;;;;5046833;28;20586;-47
2021/04/15 01:15:12;;;;;;;10.40;7.27;;;3.30;78.20;;;;;;5044052;28;20457;-46
2021/04/15 01:17:52;;;;;;;7.17;6.43;;;3.20;78.20;;;;;;5050075;28;20464;-47
2021/04/15 01:21:04;;;;;;;8.53;6.70;;;3.20;78.20;;;;;;5043561;28;20462;-47
2021/04/15 01:23:40;;;;;;;8.83;7.00;;;3.20;78.20;;;;;;5045785;28;20462;-46
2021/04/15 01:26:48;;;;;;;9.27;7.73;;;3.20;78.30;;;;;;5047760;28;20462;-47
2021/04/15 01:29:23;;;;;;;9.63;6.37;;;3.10;78.30;;;;;;5024456;28;20898;-46
2021/04/15 01:32:27;;;;;;;7.03;6.33;;;3.10;78.30;;;;;;5041378;28;20465;-47
2021/04/15 01:35:10;;;;;;;12.60;7.87;;;3.10;78.30;;;;;;5055922;28;20885;-46
2021/04/15 01:37:55;;;;;;;7.73;6.53;;;3.00;78.20;;;;;;5045074;28;20455;-47
2021/04/15 01:40:42;;;;;;;7.50;6.70;;;3.00;78.20;;;;;;5025593;28;20459;-46
2021/04/15 01:43:17;;;;;;;9.13;7.17;;;3.00;78.20;;;;;;5047001;28;20462;-46
2021/04/15 01:45:50;;;;;;;8.83;7.37;;;2.90;78.20;;;;;;5044977;28;20465;-47
2021/04/15 01:48:21;;;;;;;9.03;6.33;;;2.90;78.30;;;;;;5043707;28;20459;-46
2021/04/15 01:51:04;;;;;;;7.47;6.77;;;2.90;78.20;;;;;;5061743;28;20458;-46
2021/04/15 01:53:39;;;;;;;12.43;6.70;;;2.90;78.30;;;;;;5045980;28;20576;-46
2021/04/15 01:56:25;;;;;;;7.73;6.83;;;2.90;78.40;;;;;;5046974;28;20450;-46
2021/04/15 01:59:04;;;;;;;11.50;7.57;;;2.90;78.40;;;;;;5046199;28;20467;-46
2021/04/15 02:01:37;;;;;;;10.43;7.87;;;2.90;78.40;;;;;;5045294;28;20463;-46
2021/04/15 02:04:11;;;;;;;9.90;7.27;;;2.90;78.30;;;;;;5061616;28;20458;-46
2021/04/15 02:06:46;;;;;;;9.93;7.60;;;2.80;78.30;;;;;;5046454;28;20845;-46
2021/04/15 02:09:15;;;;;;;9.83;7.00;;;2.80;78.20;;;;;;5046961;28;20878;-46
2021/04/15 02:12:22;;;;;;;11.97;7.90;;;2.80;78.10;;;;;;5046009;28;20459;-46
2021/04/15 02:14:55;;;;;;;7.10;6.40;;;;;;;;;;5043972;28;20947;-46
2021/04/15 02:17:22;;;;;;;7.20;6.50;;;2.70;78.10;;;;;;5043602;28;20450;-46
2021/04/15 02:19:54;;;;;;;7.70;6.90;;;2.70;78.20;;;;;;5047045;28;20498;-46
2021/04/15 02:22:34;;;;;;;8.43;7.03;;;2.70;78.20;;;;;;5043031;28;20462;-46
2021/04/15 02:25:23;;;;;;;8.10;7.17;;;2.60;78.20;;;;;;5062699;28;20454;-46
2021/04/15 02:28:07;;;;;;;8.83;7.30;;;2.60;78.20;;;;;;5043647;28;20472;-46
2021/04/15 02:30:40;;;;;;;8.00;6.80;;;2.60;78.40;;;;;;5044812;28;20938;-47
2021/04/15 02:33:11;;;;;;;8.80;7.10;;;2.60;78.20;;;;;;5045825;28;20493;-46
2021/04/15 02:35:48;;;;;;;8.23;6.93;;;2.50;78.20;;;;;;5059247;28;21075;-47
2021/04/15 02:38:20;;;;;;;7.10;6.10;;;2.50;78.20;;;;;;5042489;28;20461;-46
2021/04/15 02:40:57;;;;;;;6.13;5.50;;;2.50;78.30;;;;;;5048240;28;20494;-46
2021/04/15 02:43:40;;;;;;;7.67;6.37;;;2.50;78.20;;;;;;5060332;28;20454;-46
2021/04/15 02:46:13;;;;;;;7.07;5.93;;;2.40;78.30;;;;;;5047702;28;20457;-46
2021/04/15 02:48:42;;;;;;;7.57;5.67;;;2.40;78.20;;;;;;5044817;28;20493;-47
2021/04/15 02:51:18;;;;;;;8.43;6.27;;;2.40;78.20;;;;;;5062921;28;20454;-47
2021/04/15 02:53:52;;;;;;;8.33;7.40;;;2.40;78.20;;;;;;5050858;28;21001;-47
2021/04/15 02:56:47;;;;;;;7.23;5.87;;;2.40;78.20;;;;;;5047544;28;20495;-47
2021/04/15 02:59:34;;;;;;;7.33;6.60;;;2.40;78.20;;;;;;5045589;28;20489;-47
2021/04/15 03:02:09;;;;;;;8.93;7.50;;;2.30;78.30;;;;;;5047700;28;20601;-47
2021/04/15 03:04:39;;;;;;;11.70;7.53;;;2.30;78.30;;;;;;5063185;28;20465;-47
2021/04/15 03:07:07;;;;;;;8.80;8.00;;;2.30;78.30;;;;;;5048147;28;20459;-47
2021/04/15 03:09:38;;;;;;;11.60;7.97;;;2.30;78.30;;;;;;5064712;28;20492;-47
2021/04/15 03:12:30;;;;;;;11.57;8.50;;;2.30;78.30;;;;;;5048989;28;21013;-47
2021/04/15 03:15:11;;;;;;;16.10;8.40;;;2.30;78.30;;;;;;5045990;28;20462;-47
2021/04/15 03:17:41;;;;;;;9.70;8.50;;;2.20;78.40;;;;;;5048944;28;20464;-48
2021/04/15 03:20:14;;;;;;;11.03;8.10;;;2.20;78.40;;;;;;5049379;28;20463;-47
2021/04/15 03:23:00;;;;;;;13.67;10.37;;;2.20;78.50;;;;;;5048216;28;20468;-47
2021/04/15 03:25:27;;;;;;;18.57;13.30;;;2.20;78.50;;;;;;5044579;28;20456;-47
2021/04/15 03:28:12;;;;;;;21.23;14.23;;;2.20;78.60;;;;;;5049438;28;20474;-47
2021/04/15 03:30:58;;;;;;;21.80;16.33;;;2.20;78.70;;;;;;5047000;28;20486;-47
2021/04/15 03:33:51;;;;;;;28.17;17.80;;;2.20;78.80;;;;;;5044119;28;20975;-47
2021/04/15 03:36:31;;;;;;;30.93;20.00;;;2.10;78.80;;;;;;5045352;28;20994;-47
2021/04/15 03:39:06;;;;;;;36.80;22.27;;;2.10;78.80;;;;;;5050244;28;20458;-48
2021/04/15 03:41:42;;;;;;;44.20;27.33;;;2.10;78.80;;;;;;5049089;28;21044;-48
2021/04/15 03:44:38;;;;;;;45.07;25.80;;;2.10;78.90;;;;;;5049643;28;20909;-48
2021/04/15 03:47:18;;;;;;;46.70;29.63;;;2.10;78.80;;;;;;5043121;28;20460;-48
2021/04/15 03:49:57;;;;;;;39.70;27.23;;;2.10;78.80;;;;;;5048738;28;20494;-48
2021/04/15 03:53:00;;;;;;;39.53;26.33;;;2.10;78.80;;;;;;5048874;28;20466;-48
2021/04/15 03:55:43;;;;;;;34.23;23.80;;;2.10;78.80;;;;;;5044822;28;20492;-48
2021/04/15 03:58:16;;;;;;;36.73;24.43;;;2.10;78.90;;;;;;5049403;28;20463;-48
2021/04/15 04:00:53;;;;;;;32.30;24.13;;;2.10;79.00;;;;;;5047192;28;20803;-48
2021/04/15 04:03:25;;;;;;;32.57;23.67;;;2.10;79.10;;;;;;5045624;28;20581;-48
2021/04/15 04:06:01;;;;;;;34.17;23.87;;;2.10;79.10;;;;;;5041608;28;20980;-49
2021/04/15 04:08:47;;;;;;;32.07;24.80;;;2.10;79.20;;;;;;5047792;28;20468;-48
2021/04/15 04:11:17;;;;;;;36.27;27.00;;;2.10;79.20;;;;;;5047627;28;20520;-48
2021/04/15 04:13:48;;;;;;;32.70;23.47;;;2.10;79.20;;;;;;5048365;28;20821;-48
2021/04/15 04:16:21;;;;;;;33.27;23.20;;;2.10;79.20;;;;;;5048361;28;20489;-48
2021/04/15 04:18:58;;;;;;;29.27;22.93;;;2.10;79.10;;;;;;5045472;28;20471;-48
2021/04/15 04:21:25;;;;;;;32.83;23.43;;;2.00;79.10;;;;;;5050015;28;20457;-48
2021/04/15 04:24:05;;;;;;;32.80;23.53;;;2.00;79.10;;;;;;5044273;28;20894;-48
2021/04/15 04:26:41;;;;;;;26.47;19.40;;;2.00;79.20;;;;;;5047822;28;20485;-48
2021/04/15 04:29:17;;;;;;;25.17;20.50;;;2.00;79.10;;;;;;5048366;28;20619;-48
2021/04/15 04:31:46;;;;;;;26.40;20.13;;;2.00;79.20;;;;;;5046956;28;20463;-48
2021/04/15 04:34:15;;;;;;;30.20;21.87;;;2.00;79.20;;;;;;5048486;28;20455;-48
2021/04/15 04:36:44;;;;;;;25.53;19.90;;;2.00;79.30;;;;;;5043911;28;20459;-48
2021/04/15 04:39:14;;;;;;;26.30;21.60;;;2.00;79.20;;;;;;5047765;28;20905;-48
2021/04/15 04:42:02;;;;;;;21.20;17.10;;;2.00;79.30;;;;;;5045986;28;20469;-48
2021/04/15 04:44:56;;;;;;;22.07;17.43;;;2.00;79.10;;;;;;5048521;28;20498;-48
2021/04/15 04:48:13;;;;;;;22.23;17.93;;;2.00;79.20;;;;;;5048162;28;20505;-48
2021/04/15 04:50:54;;;;;;;22.17;16.83;;;2.00;79.20;;;;;;5032689;28;20589;-48
2021/04/15 04:53:48;;;;;;;21.47;17.50;;;2.00;79.20;;;;;;5049494;28;20521;-48
2021/04/15 04:56:33;;;;;;;23.60;17.70;;;2.00;79.20;;;;;;5043802;28;20484;-48
2021/04/15 04:59:10;;;;;;;20.80;15.50;;;1.90;79.20;;;;;;5048758;28;20454;-48
2021/04/15 05:01:36;;;;;;;18.43;16.43;;;1.90;79.20;;;;;;5061884;28;20450;-48
2021/04/15 05:04:03;;;;;;;18.90;16.90;;;1.90;79.30;;;;;;5050456;28;20563;-48
2021/04/15 05:06:37;;;;;;;23.13;17.73;;;1.90;79.30;;;;;;5061890;28;20555;-48
2021/04/15 05:09:34;;;;;;;17.60;15.77;;;1.90;79.30;;;;;;5045688;28;20494;-48
2021/04/15 05:12:07;;;;;;;20.37;16.07;;;1.90;79.40;;;;;;5043987;28;21037;-48
2021/04/15 05:14:36;;;;;;;19.80;17.40;;;1.90;79.40;;;;;;5048557;28;20463;-48
2021/04/15 05:17:17;;;;;;;23.83;17.70;;;1.90;79.40;;;;;;5047504;28;21057;-48
2021/04/15 05:19:44;;;;;;;21.73;19.20;;;2.00;79.40;;;;;;5062555;28;20463;-48
2021/04/15 05:22:20;;;;;;;21.13;18.60;;;2.00;79.40;;;;;;5044120;28;20549;-48
2021/04/15 05:25:20;;;;;;;24.30;20.63;;;2.00;79.50;;;;;;5043973;28;20927;-48
2021/04/15 05:27:47;;;;;;;24.67;18.43;;;2.10;79.70;;;;;;5049753;28;20921;-48
2021/04/15 05:30:16;;;;;;;21.00;18.27;;;2.10;79.80;;;;;;5045298;28;20490;-48
2021/04/15 05:32:45;;;;;;;21.73;18.73;;;2.10;79.80;;;;;;5043331;28;20459;-48
2021/04/15 05:35:17;;;;;;;22.30;18.03;;;2.10;79.90;;;;;;5046990;28;20454;-48
2021/04/15 05:37:45;;;;;;;20.63;18.10;;;2.20;79.90;;;;;;5058893;28;20458;-48
2021/04/15 05:40:12;;;;;;;21.37;16.87;;;2.20;80.00;;;;;;5043637;28;20473;-48
2021/04/15 05:42:45;;;;;;;22.17;18.03;;;2.30;80.00;;;;;;5062317;28;20457;-48
2021/04/15 05:45:20;;;;;;;22.33;17.30;;;2.40;80.20;;;;;;5044305;28;20463;-48
2021/04/15 05:47:46;;;;;;;19.37;14.60;;;2.40;80.30;;;;;;5046577;28;20458;-48
2021/04/15 05:50:44;;;;;;;18.77;14.87;;;2.50;80.30;;;;;;5044238;28;21119;-48
2021/04/15 05:53:47;;;;;;;18.20;15.50;;;2.60;80.30;;;;;;5046591;28;20482;-48
2021/04/15 05:56:24;;;;;;;21.00;15.47;;;2.70;80.20;;;;;;5039837;28;20821;-48
2021/04/15 05:59:13;;;;;;;14.47;12.73;;;2.80;80.20;;;;;;5046090;28;20884;-47
2021/04/15 06:01:46;;;;;;;17.73;12.40;;;2.90;80.20;;;;;;5044645;28;20457;-47
2021/04/15 06:04:25;;;;;;;17.93;14.00;;;2.90;80.10;;;;;;5061120;28;20978;-47
2021/04/15 06:06:52;;;;;;;14.47;12.87;;;3.00;80.20;;;;;;5045956;28;20826;-47
2021/04/15 06:09:18;;;;;;;12.97;11.57;;;3.00;80.30;;;;;;5047524;28;20542;-47
2021/04/15 06:11:58;;;;;;;14.17;11.30;;;3.10;80.50;;;;;;5049333;28;20967;-47
2021/04/15 06:14:59;;;;;;;14.47;11.73;;;3.20;80.20;;;;;;5047284;28;20451;-47
2021/04/15 06:17:30;;;;;;;12.80;10.27;;;3.20;80.10;;;;;;5045286;28;20550;-47
2021/04/15 06:20:12;;;;;;;14.53;10.77;;;3.30;80.00;;;;;;5045396;28;20477;-47
2021/04/15 06:22:43;;;;;;;16.50;10.30;;;3.40;79.80;;;;;;5043298;28;20827;-47
2021/04/15 06:25:20;;;;;;;15.53;10.97;;;3.50;80.00;;;;;;5030289;28;20470;-47
2021/04/15 06:27:48;;;;;;;13.53;9.80;;;3.50;79.80;;;;;;5054395;28;20468;-47
2021/04/15 06:30:27;;;;;;;14.67;9.43;;;3.60;79.70;;;;;;5054740;28;21085;-47
2021/04/15 06:33:00;;;;;;;16.53;10.17;;;3.70;79.90;;;;;;5053861;28;20459;-47
2021/04/15 06:35:31;;;;;;;11.70;9.27;;;3.80;79.90;;;;;;5052904;28;20458;-47
2021/04/15 06:38:19;;;;;;;12.13;10.40;;;3.90;79.50;;;;;;5066843;28;20454;-47
2021/04/15 06:41:20;;;;;;;13.63;11.43;;;3.90;79.40;;;;;;5047156;28;20470;-47
2021/04/15 06:44:21;;;;;;;16.23;10.90;;;4.10;79.20;;;;;;5048685;28;20491;-47
2021/04/15 06:47:10;;;;;;;14.90;10.03;;;4.20;79.30;;;;;;5048965;28;20469;-47
2021/04/15 06:49:58;;;;;;;17.17;10.03;;;4.20;79.30;;;;;;5049912;28;20501;-47
2021/04/15 06:52:54;;;;;;;17.17;10.53;;;4.30;79.00;;;;;;5050640;28;20456;-47
2021/04/15 06:55:50;;;;;;;14.03;9.77;;;4.40;78.70;;;;;;5034643;28;20461;-48
2021/04/15 06:58:33;;;;;;;13.57;8.80;;;4.50;78.60;;;;;;5052194;28;20466;-46
2021/04/15 07:01:14;;;;;;;13.40;8.43;;;4.60;78.00;;;;;;5051225;28;20629;-46
2021/04/15 07:03:56;;;;;;;13.00;8.83;;;4.80;77.00;;;;;;5052530;28;20813;-46
2021/04/15 07:06:40;;;;;;;12.97;8.80;;;4.90;77.10;;;;;;5053246;28;21047;-47
2021/04/15 07:09:34;;;;;;;14.13;10.37;;;5.00;76.30;;;;;;5049318;28;20478;-47
2021/04/15 07:12:48;;;;;;;11.57;7.87;;;5.20;76.10;;;;;;5051431;28;21710;-48
2021/04/15 07:16:00;;;;;;;10.90;8.20;;;5.40;75.00;;;;;;5050277;28;20466;-47
2021/04/15 07:18:35;;;;;;;12.33;8.90;;;5.50;75.10;;;;;;5046321;28;20982;-47
2021/04/15 07:21:01;;;;;;;10.57;8.20;;;5.70;74.50;;;;;;5052518;28;20462;-48
2021/04/15 07:23:49;;;;;;;10.90;8.53;;;5.90;74.20;;;;;;5053671;28;21048;-47
2021/04/15 07:26:39;;;;;;;11.83;9.27;;;6.10;73.90;;;;;;5050876;28;20454;-48
2021/04/15 07:29:14;;;;;;;8.53;7.20;;;6.30;73.30;;;;;;5052618;28;20580;-47
2021/04/15 07:32:04;;;;;;;14.20;8.70;;;6.50;72.40;;;;;;5063478;28;20553;-48
2021/04/15 07:34:31;;;;;;;10.30;6.70;;;6.80;72.00;;;;;;5050780;28;20515;-48
2021/04/15 07:37:08;;;;;;;8.70;7.50;;;7.00;72.20;;;;;;5051235;28;20458;-47
2021/04/15 07:39:55;;;;;;;9.20;7.77;;;7.20;71.70;;;;;;5050273;28;20454;-47
2021/04/15 07:42:59;;;;;;;7.70;6.90;;;7.40;70.50;;;;;;5063854;28;20455;-47
2021/04/15 07:45:33;;;;;;;11.37;7.27;;;7.60;68.90;;;;;;5042812;28;20450;-48
2021/04/15 07:48:35;;;;;;;10.70;7.87;;;7.80;68.60;;;;;;5064637;28;20799;-48
2021/04/15 07:51:22;;;;;;;8.73;7.20;;;8.00;67.80;;;;;;5044457;28;20486;-48
2021/04/15 07:54:16;;;;;;;9.40;6.13;;;8.20;66.40;;;;;;5046759;28;20471;-47
2021/04/15 07:57:37;;;;;;;10.60;7.87;;;8.30;65.80;;;;;;5049635;28;20435;-48
2021/04/15 08:00:21;;;;;;;8.40;7.50;;;8.50;64.80;;;;;;5031789;28;20940;-48
2021/04/15 08:03:13;;;;;;;9.50;7.77;;;8.70;64.20;;;;;;5049619;28;20486;-48
2021/04/15 08:06:04;;;;;;;9.83;8.23;;;8.90;63.60;;;;;;5051815;28;20876;-48
2021/04/15 08:09:09;;;;;;;9.17;7.17;;;9.10;62.60;;;;;;5050480;28;20533;-48
2021/04/15 08:11:38;;;;;;;10.93;8.07;;;9.30;62.20;;;;;;5050524;28;20465;-48
2021/04/15 08:14:34;;;;;;;8.63;7.13;;;9.50;62.00;;;;;;5067341;28;20447;-48
2021/04/15 08:17:22;;;;;;;7.87;6.80;;;9.70;60.90;;;;;;5049914;28;20471;-48
2021/04/15 08:20:23;;;;;;;8.80;6.60;;;9.70;59.00;;;;;;5052564;28;20459;-48
2021/04/15 08:23:02;;;;;;;8.50;7.00;;;9.90;59.90;;;;;;5046909;28;21089;-48
2021/04/15 08:25:48;;;;;;;9.10;7.30;;;10.10;60.20;;;;;;5047931;28;20486;-48
2021/04/15 08:28:29;;;;;;;8.73;7.47;;;10.40;59.20;;;;;;5051963;28;20459;-48
2021/04/15 08:31:46;;;;;;;11.47;7.13;;;10.60;57.10;;;;;;5055076;28;20510;-49
2021/04/15 08:34:53;;;;;;;8.03;7.10;;;10.70;57.00;;;;;;5058111;28;20438;-48
2021/04/15 08:37:31;;;;;;;11.77;6.80;;;10.90;56.90;;;;;;5052977;28;20446;-48
2021/04/15 08:40:18;;;;;;;7.27;5.87;;;11.10;55.80;;;;;;5049137;28;20543;-49
2021/04/15 08:42:49;;;;;;;8.53;6.53;;;11.30;54.90;;;;;;5045602;28;20866;-49
2021/04/15 08:45:39;;;;;;;8.17;6.87;;;11.60;54.40;;;;;;5046983;28;20458;-48
2021/04/15 08:48:42;;;;;;;6.33;5.40;;;11.90;52.60;;;;;;5048601;28;20961;-49
2021/04/15 08:51:57;;;;;;;6.40;5.80;;;12.10;52.40;;;;;;5048998;28;21025;-49
2021/04/15 08:54:48;;;;;;;6.40;5.17;;;12.40;51.60;;;;;;5067177;28;20478;-49
2021/04/15 08:57:48;;;;;;;9.00;6.27;;;12.50;50.60;;;;;;5047263;28;20557;-49
2021/04/15 09:00:52;;;;;;;7.40;6.50;;;12.20;51.40;;;;;;5064755;28;20466;-49
2021/04/15 09:03:42;;;;;;;8.53;5.90;;;12.00;52.00;;;;;;5049210;28;20990;-49
2021/04/15 09:06:25;;;;;;;8.00;5.97;;;12.30;50.20;;;;;;5049339;28;20963;-49
2021/04/15 09:09:15;;;;;;;7.30;5.50;;;12.40;49.90;;;;;;5050371;28;20626;-49
2021/04/15 09:11:41;;;;;;;6.43;5.50;;;12.30;50.30;;;;;;5050318;28;20537;-49
2021/04/15 09:14:33;;;;;;;6.83;6.13;;;12.10;50.10;;;;;;5062593;28;20459;-49
2021/04/15 09:17:04;;;;;;;7.27;6.20;;;11.80;51.50;;;;;;5045516;28;20478;-48
2021/04/15 09:20:08;;;;;;;6.93;5.33;;;11.50;51.50;;;;;;5051127;28;20445;-48
2021/04/15 09:22:58;;;;;;;6.83;5.70;;;11.30;52.50;;;;;;5047192;28;20458;-48
2021/04/15 09:25:44;;;;;;;8.93;5.83;;;11.00;52.90;;;;;;5065274;28;20451;-48
2021/04/15 09:28:38;;;;;;;6.00;5.33;;;10.70;54.10;;;;;;5054070;28;20849;-48
2021/04/15 09:31:14;;;;;;;9.53;5.70;;;10.50;54.80;;;;;;5049925;28;20486;-48
2021/04/15 09:34:18;;;;;;;5.63;4.70;;;10.20;55.40;;;;;;5048585;28;20454;-48
2021/04/15 09:37:11;;;;;;;6.40;4.97;;;10.00;56.10;;;;;;5067043;28;21002;-48
2021/04/15 09:39:56;;;;;;;7.30;5.43;;;9.80;57.00;;;;;;5048544;28;20490;-49
2021/04/15 09:42:34;;;;;;;6.57;5.37;;;9.70;57.80;;;;;;5064561;28;20872;-48
2021/04/15 09:45:18;;;;;;;7.00;4.83;;;9.60;58.30;;;;;;5049424;28;20820;-48
2021/04/15 09:48:04;;;;;;;7.40;5.13;;;9.50;58.50;;;;;;5050045;28;20546;-48
2021/04/15 09:50:58;;;;;;;5.57;4.83;;;9.40;59.30;;;;;;5048267;28;20498;-48
2021/04/15 09:53:39;;;;;;;13.70;5.93;;;9.40;59.10;;;;;;5056430;28;20546;-49
2021/04/15 09:56:16;;;;;;;5.60;5.03;;;9.40;59.30;;;;;;5044714;28;20447;-48
2021/04/15 09:59:03;;;;;;;5.67;5.17;;;9.40;59.40;;;;;;5047324;28;20696;-49
2021/04/15 10:01:48;;;;;;;6.80;5.20;;;9.40;59.90;;;;;;5044077;28;20461;-49
2021/04/15 10:04:33;;;;;;;8.10;5.60;;;9.70;59.70;;;;;;5048669;28;20947;-48
2021/04/15 10:07:12;;;;;;;5.13;4.40;;;10.20;58.40;;;;;;5047928;28;20446;-49
2021/04/15 10:10:06;;;;;;;5.90;5.30;;;10.60;56.90;;;;;;5047314;28;21027;-49
2021/04/15 10:12:53;;;;;;;5.67;4.40;;;10.70;54.30;;;;;;5046512;28;20547;-48
2021/04/15 10:15:42;;;;;;;6.77;5.90;;;10.80;54.90;;;;;;5047201;28;20998;-48
2021/04/15 10:18:40;;;;;;;6.43;5.23;;;10.80;54.50;;;;;;5046237;28;20633;-48
2021/04/15 10:21:20;;;;;;;10.17;5.73;;;10.80;53.60;;;;;;5043470;28;20525;-49
2021/04/15 10:24:12;;;;;;;5.10;4.43;;;10.80;52.90;;;;;;5044975;28;20489;-49
2021/04/15 10:27:09;;;;;;;6.20;4.33;;;10.70;53.10;;;;;;5032886;28;20451;-49
2021/04/15 10:29:46;;;;;;;5.10;4.60;;;10.70;53.20;;;;;;5012766;28;20506;-49
2021/04/15 10:32:51;;;;;;;6.17;5.47;;;11.00;52.60;;;;;;5060830;28;20468;-49
2021/04/15 10:35:54;;;;;;;8.40;4.53;;;11.30;51.20;;;;;;5049910;28;20451;-49
2021/04/15 10:38:55;;;;;;;5.63;4.50;;;12.00;49.90;;;;;;5065383;28;20456;-49
2021/04/15 10:41:35;;;;;;;6.00;5.40;;;12.70;48.40;;;;;;5047493;28;20541;-49
2021/04/15 10:44:23;;;;;;;5.07;4.57;;;13.30;47.20;;;;;;5051153;28;20450;-49
2021/04/15 10:47:01;;;;;;;5.93;4.87;;;13.70;45.10;;;;;;5046343;28;20463;-49
2021/04/15 10:49:47;;;;;;;5.83;4.60;;;14.30;43.30;;;;;;5051274;28;20524;-49
2021/04/15 10:52:24;;;;;;;5.63;4.37;;;14.80;42.10;;;;;;5064272;28;20566;-49
2021/04/15 10:55:10;;;;;;;5.07;3.80;;;15.20;39.60;;;;;;5044834;28;20541;-49
2021/04/15 10:57:36;;;;;;;4.13;3.73;;;15.30;38.40;;;;;;5049897;28;20453;-49
2021/04/15 11:00:38;;;;;;;3.27;2.97;;;15.10;38.40;;;;;;5048093;28;20558;-49
2021/04/15 11:03:22;;;;;;;4.40;3.20;;;15.00;36.70;;;;;;5005492;28;20525;-49
2021/04/15 11:05:52;;;;;;;4.60;3.70;;;14.90;35.40;;;;;;5063771;28;20455;-49
2021/04/15 11:08:30;;;;;;;4.57;4.10;;;14.60;36.50;;;;;;5051263;28;20981;-49
2021/04/15 11:11:18;;;;;;;7.67;6.07;;;14.40;38.10;;;;;;5049666;28;20489;-49
2021/04/15 11:13:46;;;;;;;4.63;4.10;;;14.30;39.60;;;;;;5050794;28;20562;-49
2021/04/15 11:16:22;;;;;;;3.93;3.53;;;14.50;40.40;;;;;;5052344;28;20477;-48
2021/04/15 11:18:50;;;;;;;4.43;2.67;;;14.70;38.00;;;;;;5051640;28;20456;-48
2021/04/15 11:21:29;;;;;;;4.70;4.07;;;15.00;37.70;;;;;;5057476;28;20841;-48
2021/04/15 11:24:16;;;;;;;4.90;4.10;;;15.30;38.40;;;;;;5047801;28;20464;-48
2021/04/15 11:26:45;;;;;;;8.40;3.40;;;15.60;37.60;;;;;;5051612;28;20458;-48
2021/04/15 11:29:26;;;;;;;4.97;3.83;;;15.80;37.10;;;;;;5051723;28;20496;-48
2021/04/15 11:31:53;;;;;;;4.17;3.73;;;16.10;34.20;;;;;;5049796;28;20541;-48
2021/04/15 11:34:40;;;;;;;5.07;4.20;;;16.10;36.50;;;;;;5053326;28;20978;-48
2021/04/15 11:37:19;;;;;;;6.13;3.97;;;16.10;37.10;;;;;;5050043;28;20487;-48
2021/04/15 11:39:45;;;;;;;3.90;3.07;;;16.10;36.70;;;;;;5051048;28;20494;-48
2021/04/15 11:42:15;;;;;;;5.80;3.70;;;16.10;36.10;;;;;;5049391;28;20943;-49
2021/04/15 11:44:51;;;;;;;4.50;3.20;;;16.00;37.00;;;;;;5056051;28;20462;-49
2021/04/15 11:47:22;;;;;;;3.80;3.20;;;15.80;36.60;;;;;;5053156;28;20465;-48
2021/04/15 11:49:50;;;;;;;2.67;2.47;;;15.60;36.40;;;;;;5050778;28;20496;-49
2021/04/15 11:52:23;;;;;;;3.07;2.30;;;15.40;36.80;;;;;;5053606;28;20458;-49
2021/04/15 11:54:52;;;;;;;2.70;2.10;;;15.40;36.60;;;;;;5047468;28;20473;-49
2021/04/15 11:57:25;;;;;;;3.20;2.50;;;15.40;34.80;;;;;;5070068;28;20467;-49
2021/04/15 12:00:00;;;;;;;2.97;1.80;;;15.30;34.80;;;;;;5052277;28;20492;-49
2021/04/15 12:02:46;;;;;;;1.80;1.70;;;15.30;35.80;;;;;;5050806;28;20545;-49
2021/04/15 12:05:41;;;;;;;3.33;3.00;;;15.40;35.40;;;;;;5048423;28;20494;-49
2021/04/15 12:08:12;;;;;;;4.10;2.33;;;15.50;34.70;;;;;;5047968;28;20457;-48
2021/04/15 12:10:56;;;;;;;4.07;2.63;;;15.50;35.50;;;;;;5052599;28;20873;-49
2021/04/15 12:13:29;;;;;;;3.77;1.97;;;15.50;35.30;;;;;;5050083;28;20462;-49
2021/04/15 12:16:20;;;;;;;3.50;2.77;;;15.40;35.10;;;;;;5049385;28;20477;-49
2021/04/15 12:18:58;;;;;;;3.00;2.40;;;15.30;35.80;;;;;;5047333;28;20461;-49
2021/04/15 12:21:35;;;;;;;5.03;2.70;;;15.10;35.90;;;;;;5052166;28;20462;-48
2021/04/15 12:24:19;;;;;;;7.73;3.40;;;14.80;35.50;;;;;;5048586;28;20846;-48
2021/04/15 12:27:13;;;;;;;3.80;3.50;;;14.50;38.30;;;;;;5051396;28;20468;-48
2021/04/15 12:29:49;;;;;;;5.60;3.40;;;14.10;39.00;;;;;;5066652;28;20478;-48
2021/04/15 12:32:50;;;;;;;3.77;3.37;;;13.70;39.00;;;;;;5050629;28;20457;-48
2021/04/15 12:35:25;;;;;;;5.60;3.13;;;13.40;39.60;;;;;;5050115;28;20549;-48
2021/04/15 12:38:06;;;;;;;4.80;3.13;;;13.20;40.90;;;;;;5053205;28;20495;-48
2021/04/15 12:40:48;;;;;;;2.73;2.47;;;13.10;40.70;;;;;;5052224;28;20463;-48
2021/04/15 12:43:16;;;;;;;3.90;3.30;;;12.90;41.10;;;;;;5052264;28;20533;-48
2021/04/15 12:45:51;;;;;;;4.73;3.03;;;12.70;41.80;;;;;;5046864;28;20462;-48
2021/04/15 12:48:41;;;;;;;2.90;2.70;;;12.60;42.80;;;;;;5048022;28;20596;-48
2021/04/15 12:51:10;;;;;;;3.70;2.90;;;12.50;41.50;;;;;;5051890;28;21085;-48
2021/04/15 12:53:43;;;;;;;6.33;3.60;;;12.40;42.20;;;;;;5052299;28;20487;-48
2021/04/15 12:56:16;;;;;;;4.87;3.37;;;12.40;42.50;;;;;;5049904;28;20453;-48
2021/04/15 12:58:44;;;;;;;5.20;3.77;;;12.30;43.10;;;;;;5049149;28;20553;-48
2021/04/15 13:01:13;;;;;;;6.93;3.47;;;12.30;43.00;;;;;;5053381;28;20446;-48
2021/04/15 13:03:46;;;;;;;8.23;3.83;;;12.30;43.20;;;;;;5053117;28;20451;-48
2021/04/15 13:06:19;;;;;;;7.33;4.37;;;12.40;43.70;;;;;;5050304;28;20494;-48
2021/04/15 13:08:52;;;;;;;5.27;3.23;;;12.40;43.80;;;;;;5043475;28;20470;-48
2021/04/15 13:11:19;;;;;;;4.90;3.63;;;12.60;43.00;;;;;;5049544;28;20999;-48
2021/04/15 13:13:49;;;;;;;5.03;3.03;;;12.60;42.80;;;;;;5046363;28;20463;-49
2021/04/15 13:16:34;;;;;;;3.83;3.43;;;12.70;42.50;;;;;;5045940;28;20547;-48
2021/04/15 13:19:09;;;;;;;5.07;4.00;;;12.80;41.80;;;;;;5050224;28;20589;-48
2021/04/15 13:21:39;;;;;;;4.53;3.40;;;12.80;42.20;;;;;;5052288;28;20549;-48
2021/04/15 13:24:41;;;;;;;4.20;3.40;;;12.90;42.20;;;;;;5047601;28;21043;-48
2021/04/15 13:27:36;;;;;;;6.40;3.63;;;13.00;41.40;;;;;;5046520;28;20978;-48
2021/04/15 13:30:24;;;;;;;6.23;3.83;;;13.20;42.00;;;;;;5049275;28;20504;-48
2021/04/15 13:33:15;;;;;;;4.80;4.00;;;13.40;42.00;;;;;;5050935;28;20962;-48
2021/04/15 13:35:52;;;;;;;3.77;3.47;;;13.60;42.90;;;;;;5042770;28;20541;-48
2021/04/15 13:38:46;;;;;;;9.73;3.80;;;13.80;42.00;;;;;;5046879;28;20480;-48
2021/04/15 13:41:22;;;;;;;4.07;3.40;;;14.00;41.40;;;;;;5046667;28;20500;-48
2021/04/15 13:43:51;;;;;;;4.80;3.67;;;14.10;40.40;;;;;;5047569;28;20557;-48
2021/04/15 13:46:30;;;;;;;4.50;3.83;;;14.00;42.80;;;;;;5044605;28;20462;-48
2021/04/15 13:49:08;;;;;;;5.20;3.63;;;13.80;44.00;;;;;;5045212;28;20545;-48
2021/04/15 13:51:47;;;;;;;6.83;3.40;;;13.50;46.00;;;;;;5043341;28;21005;-49
2021/04/15 13:54:13;;;;;;;4.77;3.60;;;13.20;47.00;;;;;;5046409;28;20529;-49
2021/04/15 13:56:56;;;;;;;4.60;3.67;;;13.00;48.40;;;;;;5045289;28;20546;-48
2021/04/15 13:59:48;;;;;;;5.43;4.20;;;12.80;48.50;;;;;;5052363;28;20897;-48